createdAt,value
2023-11-16T00:03:29.990Z,6.6
2023-11-16T00:13:29.889Z,6.9
2023-11-16T00:23:29.908Z,7.2
2023-11-16T00:33:30.348Z,7.4
2023-11-16T00:43:29.833Z,7.4
2023-11-16T00:53:29.870Z,7.4
2023-11-16T01:03:30.317Z,7.5
2023-11-16T01:13:31.739Z,7.3
2023-11-16T01:23:29.873Z,7.2
2023-11-16T01:33:29.844Z,7.1
2023-11-16T01:43:29.787Z,7.1
2023-11-16T01:53:29.875Z,7
2023-11-16T02:03:29.962Z,6.8
2023-11-16T02:13:29.782Z,6.7
2023-11-16T02:23:29.784Z,6.7
2023-11-16T02:33:29.886Z,6.5
2023-11-16T02:43:29.904Z,6.3
2023-11-16T02:53:29.783Z,6.2
2023-11-16T03:03:29.886Z,6.2
2023-11-16T03:13:29.736Z,6
2023-11-16T03:23:29.738Z,5.8
2023-11-16T03:33:29.756Z,5.9
2023-11-16T03:43:29.776Z,5.8
2023-11-16T03:53:29.729Z,5.9
2023-11-16T04:03:29.952Z,5.9
2023-11-16T04:13:29.675Z,5.9
2023-11-16T04:23:29.748Z,5.9
2023-11-16T04:33:29.769Z,6
2023-11-16T04:43:29.716Z,5.8
2023-11-16T04:53:29.684Z,5.7
2023-11-16T05:03:29.796Z,5.7
2023-11-16T05:13:29.858Z,6
2023-11-16T05:23:29.645Z,6.1
2023-11-16T05:33:29.765Z,6
2023-11-16T05:43:29.583Z,5.9
2023-11-16T05:53:30.468Z,6.1
2023-11-16T06:03:29.711Z,6.3
2023-11-16T06:13:29.562Z,6.1
2023-11-16T06:23:29.601Z,6.2
2023-11-16T06:33:30.030Z,6.2
2023-11-16T06:43:29.561Z,6.4
2023-11-16T06:53:30.009Z,6.4
2023-11-16T07:03:29.647Z,6.6
2023-11-16T07:13:29.520Z,6.5
2023-11-16T07:23:29.563Z,6.5
2023-11-16T07:33:29.565Z,6.5
2023-11-16T07:43:29.502Z,6.5
2023-11-16T07:53:29.470Z,6.8
2023-11-16T08:03:29.590Z,6.6
2023-11-16T08:13:29.505Z,6.3
2023-11-16T08:23:41.723Z,6.3
2023-11-16T08:33:30.048Z,6.4
2023-11-16T08:43:29.467Z,6.3
2023-11-16T08:53:29.425Z,6.4
2023-11-16T09:03:29.983Z,6.4
2023-11-16T09:13:29.425Z,6.5
2023-11-16T09:23:29.426Z,6.6
2023-11-16T09:33:29.533Z,6.7
2023-11-16T09:43:29.416Z,7
2023-11-16T09:53:29.866Z,7.1
2023-11-16T10:03:29.534Z,7.3
2023-11-16T10:13:29.390Z,7.4
2023-11-16T10:23:29.401Z,7.5
2023-11-16T10:33:29.464Z,7.8
2023-11-16T10:43:30.864Z,8.2
2023-11-16T10:53:29.367Z,8.4
2023-11-16T11:03:29.495Z,8.4
2023-11-16T11:13:29.309Z,8.4
2023-11-16T11:23:29.339Z,8.4
2023-11-16T11:33:29.540Z,8.5
2023-11-16T11:43:29.709Z,8.9
2023-11-16T11:53:29.314Z,9.2
2023-11-16T12:03:29.489Z,9.5
2023-11-16T12:13:29.337Z,9.9
2023-11-16T12:23:29.257Z,10.7
2023-11-16T12:33:29.764Z,12.5
2023-11-16T12:43:31.185Z,13.6
2023-11-16T12:53:29.327Z,14.8
2023-11-16T13:03:39.262Z,13.9
2023-11-16T13:13:29.216Z,13.3
2023-11-16T13:23:29.195Z,12.6
2023-11-16T13:33:29.264Z,12.4
2023-11-16T13:43:29.586Z,12.2
2023-11-16T13:53:29.182Z,12
2023-11-16T14:03:29.645Z,11.9
2023-11-16T14:13:29.110Z,12
2023-11-16T14:33:29.131Z,12.7
2023-11-16T14:43:29.061Z,13
2023-11-16T14:53:34.474Z,13.6
2023-11-16T15:03:29.167Z,14
2023-11-16T15:13:29.464Z,14.9
2023-11-16T15:23:29.474Z,14.7
2023-11-16T15:33:29.525Z,14.7
2023-11-16T15:43:30.980Z,14.8
2023-11-16T15:53:30.490Z,14.8
2023-11-16T16:03:29.124Z,14.8
2023-11-16T16:13:29.383Z,14.4
2023-11-16T16:23:28.977Z,14.2
2023-11-16T16:33:28.988Z,14
2023-11-16T16:43:30.836Z,14
2023-11-16T16:53:28.916Z,13.8
2023-11-16T17:03:29.404Z,13.5
2023-11-16T17:13:28.876Z,13.5
2023-11-16T17:23:28.863Z,13.8
2023-11-16T17:33:28.909Z,13.5
2023-11-16T17:43:28.836Z,13.5
2023-11-16T17:53:28.819Z,13.4
2023-11-16T18:03:28.872Z,12.9
2023-11-16T18:13:29.210Z,13.2
2023-11-16T18:23:28.821Z,13.3
2023-11-16T18:33:28.796Z,12.6
2023-11-16T18:43:28.757Z,12.2
2023-11-16T18:53:28.776Z,12.5
2023-11-16T19:03:28.799Z,12.8
2023-11-16T19:13:28.695Z,12.3
2023-11-16T19:23:28.722Z,12.6
2023-11-16T19:33:28.697Z,12.6
2023-11-16T19:43:28.683Z,12.6
2023-11-16T19:53:28.713Z,11.9
2023-11-16T20:03:28.738Z,11.9
2023-11-16T20:13:29.034Z,11.8
2023-11-16T20:23:28.661Z,11.6
2023-11-16T20:33:28.734Z,11.5
2023-11-16T20:43:28.602Z,11.3
2023-11-16T20:53:29.064Z,11.3
2023-11-16T21:03:28.740Z,11.2
2023-11-16T21:13:28.559Z,11.2
2023-11-16T21:23:28.747Z,11.2
2023-11-16T21:33:28.661Z,11.2
2023-11-16T21:43:28.528Z,11.4
2023-11-16T21:53:28.572Z,11.5
2023-11-16T22:03:28.628Z,11.4
2023-11-16T22:13:28.502Z,11.3
2023-11-16T22:23:28.513Z,11.6
2023-11-16T22:33:28.509Z,12
2023-11-16T22:43:28.858Z,11.9
2023-11-16T22:53:28.467Z,12.1
2023-11-16T23:03:29.021Z,12.4
2023-11-16T23:13:28.476Z,12.6
2023-11-16T23:23:28.386Z,12.5
2023-11-16T23:33:28.432Z,12.8
2023-11-16T23:43:28.407Z,12.9
2023-11-16T23:53:28.420Z,12.6
